Hopewell Junction, NY (12533)

8:10 PM EDT on April 29, 2017 (GMT -0400)
Harvest Meadows | | Change Station

Elev 79 ft 41.59 °N, 73.82 °W | Updated 8 seconds ago

Partly Cloudy
Partly Cloudy
70.1 °F
Feels Like 76 °F
N
5.0
Wind Variable Wind from North

Today
High -- | Low -- °F
--% Chance of Precip.
Yesterday
High -- | Low -- °F
Precip. -- in
Pressure 30.02 in
Visibility 10.0 miles
Clouds Few 5000 ft
Overcast 8500 ft
Heat Index 76 °F
Dew Point 56 °F
Humidity 61%
Rainfall 0.00 in
Snow Depth Not available.
5:54 AM 7:51 PM
Waxing Crescent, 17% visible
METAR KPOU 292353Z AUTO 34007KT 10SM FEW050 OVC085 22/12 A3003 RMK AO2 PRESRR SLP165 T02170122 10278 20217 53020
Pressure 30.02 in
Visibility 10.0 miles
Clouds Few 5000 ft
Overcast 8500 ft
Heat Index 76 °F
Dew Point 56 °F
Humidity 61%
Rainfall 0.00 in
Snow Depth Not available.
5:54 AM 7:51 PM
Waxing Crescent, 17% visible
METAR KPOU 292353Z AUTO 34007KT 10SM FEW050 OVC085 22/12 A3003 RMK AO2 PRESRR SLP165 T02170122 10278 20217 53020

Get Severe Weather Alerts

Thanks for signing up!

Be on the lookout for a verification email in your inbox.

You'll start receiving the daily forecast at 8 AM.

×

10-Day Weather Forecast

Almanac

Astronomy

Apr. 29, 2017 Rise Set
Actual Time
Civil Twilight
Nautical Twilight
Astronomical Twilight
Moon
Length of Visible Light
Length of Day
Tomorrow will be .
, % of the Moon is Illuminated

Today's Extremes

State Highs State Lows

Community

WunderPhotos

WunderBlog® & News

Nearby

Air Quality

  Air Quality AQ Index Pollutant
Not available.

Snow Depth

Station Depth Elevation

Earthquake Activity

City Distance Mag. Time & Date
Minimum magnitude displayed is 2.5.

Coastal Water Temperatures

Place Temperature

Stations

Nearby Weather Stations

Station Location Temp. Windchill Dew Point Humidity Wind Precip. Elev Updated Type
                   

Watches & Warnings

There are currently no watches in effect.